Time;durP1;ratioP1;P1;durP2;ratioP2;P2;SDS_P1;SDS_P2;PMS_P1;PMS_P2;Temp;Humidity;BMP_temperature;BMP_pressure;BME280_temperature;BME280_humidity;BME280_pressure;Samples;Min_cycle;Max_cycle;Signal;HPM_P1;HPM_P2
2024/01/18 00:00:11;;;;;;;33.33;15.82;;;;;;;;;;7376040;19;20040;-78
2024/01/18 00:02:37;;;;;;;28.90;16.00;;;;;;;;;;7376576;19;20594;-78
2024/01/18 00:05:02;;;;;;;33.90;17.38;;;;;;;;;;7374962;19;20027;-78
2024/01/18 00:07:29;;;;;;;31.52;15.65;;;;;;;;;;7400548;19;20002;-78
2024/01/18 00:09:54;;;;;;;35.50;16.95;;;;;;;;;;7392391;19;20056;-78
2024/01/18 00:12:19;;;;;;;34.63;16.63;;;;;;;;;;7382964;19;20014;-78
2024/01/18 00:14:44;;;;;;;35.60;17.15;;;;;;;;;;7372527;19;20405;-78
2024/01/18 00:17:10;;;;;;;30.70;16.08;;;;;;;;;;7374611;19;20010;-78
2024/01/18 00:19:35;;;;;;;33.85;17.23;;;;;;;;;;7396085;19;20027;-78
2024/01/18 00:22:02;;;;;;;32.53;17.38;;;;;;;;;;7380755;19;20015;-78
2024/01/18 00:24:27;;;;;;;33.65;17.52;;;;;;;;;;7399961;19;20007;-78
2024/01/18 00:26:53;;;;;;;32.72;17.05;;;;;;;;;;7397214;19;20073;-78
2024/01/18 00:29:18;;;;;;;43.47;17.48;;;;;;;;;;7394212;19;20019;-78
2024/01/18 00:31:43;;;;;;;34.40;16.90;;;;;;;;;;7383303;19;20392;-78
2024/01/18 00:34:09;;;;;;;36.50;17.38;;;;;;;;;;7396855;19;20800;-79
2024/01/18 00:36:34;;;;;;;35.55;16.90;;;;;;;;;;7376440;19;19995;-78
2024/01/18 00:39:01;;;;;;;34.10;16.63;;;;;;;;;;7375612;19;20027;-78
2024/01/18 00:41:32;;;;;;;37.28;18.77;;;;;;;;;;7377155;19;20409;-78
2024/01/18 00:43:57;;;;;;;33.17;17.35;;;;;;;;;;7375465;19;20045;-78
2024/01/18 00:46:23;;;;;;;36.10;18.95;;;;;;;;;;7401230;19;20010;-78
2024/01/18 00:48:48;;;;;;;34.97;17.48;;;;;;;;;;7381443;19;20006;-78
2024/01/18 00:51:13;;;;;;;38.50;18.63;;;;;;;;;;7381929;19;20006;-78
2024/01/18 00:53:39;;;;;;;33.75;17.33;;;;;;;;;;7381055;19;20014;-78
2024/01/18 00:56:09;;;;;;;37.20;17.02;;;;;;;;;;7381200;19;20003;-78
2024/01/18 00:58:36;;;;;;;31.95;17.35;;;;;;;;;;7402419;19;20460;-79
2024/01/18 01:01:01;;;;;;;39.90;18.33;;;;;;;;;;7378989;19;20010;-79
2024/01/18 01:03:26;;;;;;;37.47;18.10;;;;;;;;;;7378567;19;20011;-79
2024/01/18 01:05:52;;;;;;;35.28;16.88;;;;;;;;;;7382616;19;20026;-79
2024/01/18 01:08:17;;;;;;;39.00;17.63;;;;;;;;;;7379518;19;20026;-79
2024/01/18 01:10:42;;;;;;;34.80;17.85;;;;;;;;;;7380169;19;20003;-79
2024/01/18 01:13:09;;;;;;;36.45;18.40;;;;;;;;;;7404872;19;20473;-79
2024/01/18 01:15:34;;;;;;;36.63;18.05;;;;;;;;;;7379006;19;20011;-78
2024/01/18 01:18:00;;;;;;;39.63;18.67;;;;;;;;;;7381352;19;20007;-78
2024/01/18 01:20:25;;;;;;;34.00;16.67;;;;;;;;;;7382884;19;20682;-78
2024/01/18 01:22:50;;;;;;;33.90;17.13;;;;;;;;;;7398268;19;19994;-78
2024/01/18 01:25:16;;;;;;;36.13;16.85;;;;;;;;;;7397923;19;20032;-78
2024/01/18 01:27:41;;;;;;;29.88;14.80;;;;;;;;;;7372801;19;20421;-78
2024/01/18 01:30:08;;;;;;;27.25;13.95;;;;;;;;;;7375475;19;20006;-78
2024/01/18 01:32:33;;;;;;;32.65;14.43;;;;;;;;;;7377311;19;20002;-78
2024/01/18 01:34:58;;;;;;;31.83;14.35;;;;;;;;;;7376855;19;20009;-78
2024/01/18 01:37:24;;;;;;;30.92;13.95;;;;;;;;;;7398746;19;20007;-78
2024/01/18 01:39:49;;;;;;;27.48;13.63;;;;;;;;;;7378499;19;20043;-79
2024/01/18 01:42:15;;;;;;;27.30;13.30;;;;;;;;;;7375916;19;20022;-79
2024/01/18 01:44:40;;;;;;;27.15;14.73;;;;;;;;;;7373173;19;20017;-79
2024/01/18 01:47:05;;;;;;;27.70;13.10;;;;;;;;;;7380542;19;20047;-80
2024/01/18 01:49:31;;;;;;;26.55;12.35;;;;;;;;;;7401685;19;20070;-79
2024/01/18 01:51:56;;;;;;;26.58;12.48;;;;;;;;;;7374778;19;20002;-79
2024/01/18 01:54:25;;;;;;;22.88;12.35;;;;;;;;;;7380077;19;20013;-80
2024/01/18 01:56:54;;;;;;;24.90;12.82;;;;;;;;;;7380245;19;20002;-80
2024/01/18 01:59:20;;;;;;;26.05;13.27;;;;;;;;;;7377036;19;20058;-80
2024/01/18 02:01:46;;;;;;;24.23;12.52;;;;;;;;;;7382008;19;20223;-80
2024/01/18 02:04:12;;;;;;;24.35;12.52;;;;;;;;;;7401538;19;19995;-80
2024/01/18 02:06:39;;;;;;;21.65;11.90;;;;;;;;;;7380810;19;20445;-80
2024/01/18 02:09:05;;;;;;;24.52;12.23;;;;;;;;;;7387339;19;20635;-79
2024/01/18 02:11:31;;;;;;;24.98;12.35;;;;;;;;;;7383260;19;19999;-79
2024/01/18 02:13:57;;;;;;;23.08;11.82;;;;;;;;;;7384660;19;20002;-77
2024/01/18 02:16:23;;;;;;;22.40;11.82;;;;;;;;;;7410933;19;20016;-77
2024/01/18 02:18:49;;;;;;;24.80;12.23;;;;;;;;;;7387837;19;20007;-80
2024/01/18 02:21:15;;;;;;;24.70;12.95;;;;;;;;;;7381107;19;20006;-78
2024/01/18 02:23:47;;;;;;;28.70;13.40;;;;;;;;;;7384758;19;20018;-78
2024/01/18 02:26:12;;;;;;;21.55;11.45;;;;;;;;;;7387705;19;20519;-78
2024/01/18 02:28:38;;;;;;;26.80;12.73;;;;;;;;;;7409056;19;20030;-78
2024/01/18 02:31:03;;;;;;;24.95;12.05;;;;;;;;;;7390647;19;20419;-78
2024/01/18 02:33:28;;;;;;;23.42;11.70;;;;;;;;;;7386568;19;20114;-78
2024/01/18 02:35:54;;;;;;;22.52;12.57;;;;;;;;;;7390893;19;20039;-78
2024/01/18 02:38:20;;;;;;;24.63;12.48;;;;;;;;;;7383945;19;20007;-78
2024/01/18 02:40:45;;;;;;;24.35;12.68;;;;;;;;;;7379122;19;20041;-78
2024/01/18 02:43:10;;;;;;;26.60;13.32;;;;;;;;;;7400945;19;20010;-78
2024/01/18 02:45:36;;;;;;;22.25;12.40;;;;;;;;;;7378900;19;20362;-78
2024/01/18 02:48:02;;;;;;;28.00;13.18;;;;;;;;;;7375683;19;20102;-79
2024/01/18 02:50:28;;;;;;;26.98;14.05;;;;;;;;;;7376398;19;20140;-79
2024/01/18 02:52:53;;;;;;;26.35;13.52;;;;;;;;;;7379646;19;20026;-79
2024/01/18 02:55:18;;;;;;;29.10;14.52;;;;;;;;;;7399247;19;20006;-78
2024/01/18 02:57:44;;;;;;;27.30;14.82;;;;;;;;;;7374772;19;20017;-78
2024/01/18 03:00:11;;;;;;;30.95;14.05;;;;;;;;;;7379436;19;20043;-78
2024/01/18 03:02:36;;;;;;;24.30;13.07;;;;;;;;;;7378552;19;20015;-78
2024/01/18 03:05:02;;;;;;;28.50;14.02;;;;;;;;;;7374144;19;20054;-78
2024/01/18 03:07:28;;;;;;;29.52;13.43;;;;;;;;;;7400712;19;20132;-78
2024/01/18 03:09:54;;;;;;;22.50;12.65;;;;;;;;;;7378799;19;20121;-78
2024/01/18 03:12:19;;;;;;;22.65;11.82;;;;;;;;;;7376270;19;20027;-78
2024/01/18 03:14:44;;;;;;;22.17;11.23;;;;;;;;;;7373880;19;20023;-78
2024/01/18 03:17:10;;;;;;;19.58;10.02;;;;;;;;;;7376282;19;20041;-78
2024/01/18 03:19:35;;;;;;;17.00;9.32;;;;;;;;;;7396417;19;20009;-78
2024/01/18 03:22:01;;;;;;;17.38;9.68;;;;;;;;;;7375471;19;20010;-78
2024/01/18 03:24:26;;;;;;;17.35;9.15;;;;;;;;;;7376845;19;20014;-78
2024/01/18 03:26:52;;;;;;;19.80;9.32;;;;;;;;;;7372119;19;20006;-78
2024/01/18 03:29:17;;;;;;;19.90;9.95;;;;;;;;;;7375646;19;20406;-78
2024/01/18 03:31:43;;;;;;;13.43;8.00;;;;;;;;;;7373880;19;19999;-78
2024/01/18 03:34:08;;;;;;;21.52;9.02;;;;;;;;;;7398686;19;20007;-78
2024/01/18 03:36:34;;;;;;;18.17;8.43;;;;;;;;;;7381553;19;20042;-78
2024/01/18 03:38:59;;;;;;;14.20;7.40;;;;;;;;;;7380852;19;20019;-78
2024/01/18 03:41:24;;;;;;;20.15;8.07;;;;;;;;;;7376290;19;20034;-77
2024/01/18 03:43:53;;;;;;;14.43;6.78;;;;;;;;;;7381372;19;20031;-78
2024/01/18 03:46:19;;;;;;;14.98;6.80;;;;;;;;;;7401546;19;20003;-78
2024/01/18 03:48:44;;;;;;;14.13;6.47;;;;;;;;;;7376499;19;20078;-78
2024/01/18 03:51:09;;;;;;;14.70;6.40;;;;;;;;;;7374980;19;20020;-78
2024/01/18 03:53:36;;;;;;;10.80;5.70;;;;;;;;;;7378937;19;20009;-78
2024/01/18 03:56:02;;;;;;;11.52;5.95;;;;;;;;;;7379982;19;20498;-78
2024/01/18 03:58:27;;;;;;;16.65;6.65;;;;;;;;;;7398949;19;19999;-77
2024/01/18 04:00:52;;;;;;;13.82;6.63;;;;;;;;;;7376224;19;20042;-78
2024/01/18 04:03:18;;;;;;;10.25;5.63;;;;;;;;;;7374345;19;20031;-78
2024/01/18 04:05:44;;;;;;;13.23;7.20;;;;;;;;;;7374942;19;20529;-78
2024/01/18 04:08:09;;;;;;;12.55;6.63;;;;;;;;;;7377594;19;20006;-77
2024/01/18 04:10:35;;;;;;;14.55;7.38;;;;;;;;;;7399443;19;20095;-78
2024/01/18 04:13:00;;;;;;;13.43;7.47;;;;;;;;;;7373867;19;20046;-78
2024/01/18 04:15:26;;;;;;;13.88;6.72;;;;;;;;;;7376439;19;20006;-78
2024/01/18 04:17:51;;;;;;;15.48;6.20;;;;;;;;;;7374674;19;20010;-78
2024/01/18 04:20:21;;;;;;;13.05;6.05;;;;;;;;;;7372338;19;20002;-78
2024/01/18 04:22:47;;;;;;;13.23;6.27;;;;;;;;;;7375787;19;20027;-78
2024/01/18 04:25:12;;;;;;;12.32;6.68;;;;;;;;;;7398874;19;20003;-78
2024/01/18 04:27:37;;;;;;;14.27;6.47;;;;;;;;;;7374164;19;20006;-77
2024/01/18 04:30:03;;;;;;;16.52;6.32;;;;;;;;;;7376681;19;20017;-78
2024/01/18 04:32:29;;;;;;;13.05;6.35;;;;;;;;;;7375628;19;20583;-78
2024/01/18 04:34:54;;;;;;;12.57;6.22;;;;;;;;;;7372609;19;20009;-78
2024/01/18 04:37:20;;;;;;;11.23;6.28;;;;;;;;;;7397030;19;20729;-77
2024/01/18 04:39:45;;;;;;;11.10;5.78;;;;;;;;;;7396198;19;20003;-78
2024/01/18 04:42:10;;;;;;;11.68;6.60;;;;;;;;;;7389981;19;20055;-78
2024/01/18 04:44:36;;;;;;;14.32;5.70;;;;;;;;;;7372969;19;20014;-78
2024/01/18 04:47:01;;;;;;;11.73;5.90;;;;;;;;;;7372738;19;20089;-78
2024/01/18 04:49:27;;;;;;;12.82;6.78;;;;;;;;;;7396073;19;20007;-78
2024/01/18 04:51:52;;;;;;;13.15;6.43;;;;;;;;;;7372263;19;20464;-78
2024/01/18 04:54:17;;;;;;;13.05;6.65;;;;;;;;;;7371454;19;20529;-79
2024/01/18 04:56:42;;;;;;;17.38;6.82;;;;;;;;;;7371535;19;20393;-78
2024/01/18 04:59:08;;;;;;;13.88;6.95;;;;;;;;;;7369104;19;20013;-78
2024/01/18 05:01:39;;;;;;;15.50;6.55;;;;;;;;;;7394224;19;20366;-78
2024/01/18 05:04:05;;;;;;;12.18;7.13;;;;;;;;;;7369221;19;20469;-78
2024/01/18 05:06:31;;;;;;;15.70;7.20;;;;;;;;;;7368153;19;20037;-78
2024/01/18 05:08:57;;;;;;;14.15;7.00;;;;;;;;;;7370737;19;20006;-78
2024/01/18 05:11:22;;;;;;;13.38;7.57;;;;;;;;;;7369798;19;20031;-79
2024/01/18 05:13:47;;;;;;;11.52;5.78;;;;;;;;;;7370813;19;20397;-79
2024/01/18 05:16:13;;;;;;;12.45;6.15;;;;;;;;;;7393854;19;20031;-78
2024/01/18 05:18:39;;;;;;;13.27;6.15;;;;;;;;;;7370405;19;20509;-79
2024/01/18 05:21:04;;;;;;;12.00;5.78;;;;;;;;;;7370922;19;19999;-78
2024/01/18 05:23:29;;;;;;;11.30;5.90;;;;;;;;;;7370712;19;20002;-79
2024/01/18 05:25:55;;;;;;;15.13;5.97;;;;;;;;;;7370542;19;20006;-80
2024/01/18 05:28:20;;;;;;;11.45;6.57;;;;;;;;;;7395246;19;20005;-78
2024/01/18 05:30:46;;;;;;;13.25;6.20;;;;;;;;;;7370983;19;20038;-78
2024/01/18 05:33:11;;;;;;;14.50;7.32;;;;;;;;;;7374602;19;20006;-78
2024/01/18 05:35:36;;;;;;;14.32;6.85;;;;;;;;;;7375791;19;20010;-79
2024/01/18 05:38:03;;;;;;;11.48;6.10;;;;;;;;;;7374932;19;20017;-80
2024/01/18 05:40:29;;;;;;;12.80;5.70;;;;;;;;;;7398495;19;20007;-80
2024/01/18 05:42:54;;;;;;;10.23;5.57;;;;;;;;;;7375510;19;20643;-79
2024/01/18 05:45:19;;;;;;;12.02;5.80;;;;;;;;;;7376322;19;20007;-78
2024/01/18 05:47:44;;;;;;;12.82;5.18;;;;;;;;;;7369554;19;20009;-78
2024/01/18 05:50:10;;;;;;;12.48;5.45;;;;;;;;;;7375696;19;20132;-79
2024/01/18 05:52:36;;;;;;;9.63;5.10;;;;;;;;;;7397591;19;20002;-79
2024/01/18 05:55:02;;;;;;;9.40;4.80;;;;;;;;;;7375481;19;20013;-79
2024/01/18 05:57:28;;;;;;;11.55;4.82;;;;;;;;;;7362964;19;20070;-78
2024/01/18 05:59:53;;;;;;;12.75;4.47;;;;;;;;;;7364932;19;20003;-79
2024/01/18 06:02:20;;;;;;;11.65;4.32;;;;;;;;;;7376392;19;20002;-79
2024/01/18 06:04:46;;;;;;;9.00;3.78;;;;;;;;;;7375079;19;20451;-79
2024/01/18 06:07:11;;;;;;;7.70;3.13;;;;;;;;;;7396323;19;19998;-79
2024/01/18 06:09:36;;;;;;;7.18;3.00;;;;;;;;;;7377600;19;20604;-79
2024/01/18 06:12:02;;;;;;;6.25;2.90;;;;;;;;;;7379899;19;20106;-80
2024/01/18 06:14:27;;;;;;;6.32;2.85;;;;;;;;;;7385176;19;20595;-80
2024/01/18 06:16:52;;;;;;;4.57;2.35;;;;;;;;;;7388734;19;20002;-79
2024/01/18 06:19:18;;;;;;;5.75;2.83;;;;;;;;;;7410919;19;19990;-79
2024/01/18 06:21:43;;;;;;;6.68;2.90;;;;;;;;;;7385547;19;20006;-80
2024/01/18 06:24:08;;;;;;;7.75;3.17;;;;;;;;;;7383707;19;20000;-79
2024/01/18 06:26:34;;;;;;;5.68;2.80;;;;;;;;;;7380746;19;20006;-77
2024/01/18 06:29:04;;;;;;;6.95;2.85;;;;;;;;;;7381138;19;20111;-78
2024/01/18 06:31:29;;;;;;;8.70;2.88;;;;;;;;;;7403673;19;20026;-78
2024/01/18 06:33:56;;;;;;;6.35;2.60;;;;;;;;;;7384323;19;20426;-78
2024/01/18 06:36:22;;;;;;;8.05;3.20;;;;;;;;;;7383537;19;19999;-82
2024/01/18 06:38:49;;;;;;;6.25;2.95;;;;;;;;;;7380211;19;20036;-78
2024/01/18 06:41:16;;;;;;;7.25;2.63;;;;;;;;;;7376306;19;20010;-77
2024/01/18 06:43:44;;;;;;;6.82;3.30;;;;;;;;;;7375121;19;20014;-77
2024/01/18 06:46:15;;;;;;;12.18;3.80;;;;;;;;;;7400492;19;20009;-78
2024/01/18 06:48:42;;;;;;;7.93;3.28;;;;;;;;;;7372635;19;20022;-77
2024/01/18 06:51:09;;;;;;;8.80;3.50;;;;;;;;;;7369909;19;20401;-71
2024/01/18 06:53:35;;;;;;;13.30;3.10;;;;;;;;;;7361907;19;20007;-72
2024/01/18 06:56:01;;;;;;;7.68;3.30;;;;;;;;;;7369737;19;20107;-77
2024/01/18 06:58:26;;;;;;;11.85;3.70;;;;;;;;;;7397490;19;20354;-77
2024/01/18 07:00:51;;;;;;;7.07;3.40;;;;;;;;;;7375200;19;20034;-77
2024/01/18 07:03:18;;;;;;;7.85;3.30;;;;;;;;;;7371573;19;20003;-77
2024/01/18 07:05:43;;;;;;;9.13;4.78;;;;;;;;;;7373422;19;20478;-76
2024/01/18 07:08:10;;;;;;;9.73;4.95;;;;;;;;;;7371393;19;20002;-76
2024/01/18 07:10:35;;;;;;;8.70;3.70;;;;;;;;;;7394912;19;20009;-76
2024/01/18 07:13:01;;;;;;;11.68;4.95;;;;;;;;;;7370377;19;20421;-76
2024/01/18 07:15:26;;;;;;;11.32;4.63;;;;;;;;;;7370402;19;20006;-76
2024/01/18 07:17:51;;;;;;;11.95;4.53;;;;;;;;;;7370772;19;20081;-76
2024/01/18 07:20:16;;;;;;;8.18;4.20;;;;;;;;;;7382234;19;20009;-76
2024/01/18 07:22:42;;;;;;;9.82;4.72;;;;;;;;;;7368210;19;19997;-76
2024/01/18 07:25:07;;;;;;;11.75;5.20;;;;;;;;;;7389955;19;20415;-75
2024/01/18 07:27:33;;;;;;;10.38;5.20;;;;;;;;;;7367060;19;19998;-75
2024/01/18 07:29:58;;;;;;;9.57;4.80;;;;;;;;;;7368298;19;20003;-74
2024/01/18 07:32:23;;;;;;;9.90;4.80;;;;;;;;;;7367718;19;20010;-75
2024/01/18 07:34:48;;;;;;;13.77;5.20;;;;;;;;;;7367847;19;20033;-75
2024/01/18 07:37:14;;;;;;;15.63;5.40;;;;;;;;;;7391870;19;20011;-75
2024/01/18 07:39:40;;;;;;;14.25;5.55;;;;;;;;;;7369923;19;20036;-75
2024/01/18 07:42:09;;;;;;;6.43;3.25;;;;;;;;;;7371613;19;20036;-75
2024/01/18 07:44:35;;;;;;;12.65;5.20;;;;;;;;;;7371508;19;20010;-74
2024/01/18 07:47:00;;;;;;;17.05;5.47;;;;;;;;;;7370708;19;20462;-74
2024/01/18 07:49:25;;;;;;;16.38;6.13;;;;;;;;;;7392045;19;20022;-74
2024/01/18 07:51:51;;;;;;;17.92;6.10;;;;;;;;;;7369128;19;20005;-74
2024/01/18 07:54:17;;;;;;;11.35;5.07;;;;;;;;;;7370426;19;20003;-76
2024/01/18 07:56:42;;;;;;;9.65;5.22;;;;;;;;;;7372589;19;20480;-74
2024/01/18 07:59:08;;;;;;;14.90;4.93;;;;;;;;;;7371528;19;20733;-76
2024/01/18 08:01:33;;;;;;;12.18;6.07;;;;;;;;;;7392365;19;19994;-75
2024/01/18 08:03:59;;;;;;;13.93;5.63;;;;;;;;;;7369101;19;20006;-76
2024/01/18 08:06:24;;;;;;;14.25;5.60;;;;;;;;;;7368147;19;20040;-73
2024/01/18 08:08:50;;;;;;;16.77;5.97;;;;;;;;;;7375124;19;20002;-75
2024/01/18 08:11:15;;;;;;;10.13;5.15;;;;;;;;;;7378861;19;20024;-75
2024/01/18 08:13:40;;;;;;;14.90;5.85;;;;;;;;;;7396108;19;19998;-75
2024/01/18 08:16:10;;;;;;;17.42;5.25;;;;;;;;;;7394353;19;20011;-75
2024/01/18 08:18:36;;;;;;;12.32;6.03;;;;;;;;;;7367822;19;20022;-75
2024/01/18 08:21:02;;;;;;;10.93;4.82;;;;;;;;;;7365949;19;20002;-75
2024/01/18 08:23:28;;;;;;;11.23;5.30;;;;;;;;;;7368381;19;20014;-75
2024/01/18 08:25:53;;;;;;;14.25;5.90;;;;;;;;;;7367383;19;20074;-75
2024/01/18 08:28:18;;;;;;;9.15;4.85;;;;;;;;;;7387900;19;20017;-75
2024/01/18 08:30:44;;;;;;;12.15;6.03;;;;;;;;;;7361572;19;20014;-75
2024/01/18 08:33:10;;;;;;;13.10;6.45;;;;;;;;;;7367599;19;20074;-75
2024/01/18 08:35:35;;;;;;;14.98;6.82;;;;;;;;;;7367183;19;20017;-75
2024/01/18 08:38:01;;;;;;;12.25;6.90;;;;;;;;;;7367454;19;20023;-75
2024/01/18 08:40:27;;;;;;;16.42;7.05;;;;;;;;;;7388450;19;20023;-75
2024/01/18 08:42:52;;;;;;;13.95;7.25;;;;;;;;;;7367365;19;20018;-75
2024/01/18 08:45:21;;;;;;;18.85;8.10;;;;;;;;;;7368021;19;20007;-75
2024/01/18 08:47:47;;;;;;;12.35;6.13;;;;;;;;;;7367282;19;20500;-75
2024/01/18 08:50:15;;;;;;;8.27;4.65;;;;;;;;;;7367368;19;20540;-75
2024/01/18 08:52:40;;;;;;;17.60;8.20;;;;;;;;;;7368052;19;21096;-75
2024/01/18 08:55:06;;;;;;;16.02;6.72;;;;;;;;;;7389405;19;20062;-75
2024/01/18 08:57:31;;;;;;;16.42;7.20;;;;;;;;;;7368570;19;20026;-74
2024/01/18 08:59:57;;;;;;;20.85;9.25;;;;;;;;;;7369767;19;20017;-74
2024/01/18 09:02:22;;;;;;;17.55;8.23;;;;;;;;;;7369356;19;20660;-74
2024/01/18 09:04:47;;;;;;;17.98;8.65;;;;;;;;;;7368855;19;20002;-75
2024/01/18 09:07:13;;;;;;;24.65;8.63;;;;;;;;;;7392933;19;19994;-75
2024/01/18 09:09:38;;;;;;;16.73;8.20;;;;;;;;;;7377240;19;19999;-75
2024/01/18 09:12:04;;;;;;;17.75;9.27;;;;;;;;;;7377694;19;20564;-75
2024/01/18 09:14:29;;;;;;;17.73;8.02;;;;;;;;;;7364149;19;20516;-75
2024/01/18 09:16:54;;;;;;;13.73;7.32;;;;;;;;;;7373017;19;20011;-76
2024/01/18 09:19:20;;;;;;;16.30;8.68;;;;;;;;;;7390786;19;20021;-77
2024/01/18 09:21:46;;;;;;;15.45;7.88;;;;;;;;;;7364852;19;20467;-75
2024/01/18 09:24:13;;;;;;;18.90;7.30;;;;;;;;;;7370162;19;20031;-76
2024/01/18 09:26:38;;;;;;;17.17;8.15;;;;;;;;;;7376655;19;20026;-75
2024/01/18 09:29:03;;;;;;;19.23;8.52;;;;;;;;;;7378237;19;20414;-77
2024/01/18 09:31:29;;;;;;;19.50;8.00;;;;;;;;;;7386226;19;20002;-75
2024/01/18 09:33:54;;;;;;;13.75;6.47;;;;;;;;;;7358940;19;20007;-75
2024/01/18 09:36:19;;;;;;;17.25;7.32;;;;;;;;;;7364922;19;19998;-76
2024/01/18 09:38:46;;;;;;;17.05;7.90;;;;;;;;;;7373689;19;20023;-75
2024/01/18 09:41:14;;;;;;;18.95;6.72;;;;;;;;;;7376129;19;20149;-77
2024/01/18 09:43:41;;;;;;;16.65;7.97;;;;;;;;;;7367469;19;20311;-77
2024/01/18 09:46:07;;;;;;;14.30;7.90;;;;;;;;;;7388082;19;20362;-75
2024/01/18 09:48:34;;;;;;;14.70;6.97;;;;;;;;;;7363446;19;19999;-75
2024/01/18 09:51:00;;;;;;;13.30;6.75;;;;;;;;;;7364044;19;20006;-75
2024/01/18 09:53:26;;;;;;;13.18;7.50;;;;;;;;;;7363811;19;20002;-75
2024/01/18 09:55:53;;;;;;;18.33;9.55;;;;;;;;;;7365002;19;20334;-75
2024/01/18 09:58:19;;;;;;;14.77;7.18;;;;;;;;;;7385258;19;20821;-75
2024/01/18 10:00:53;;;;;;;17.15;8.95;;;;;;;;;;7364500;19;20050;-75
2024/01/18 10:03:19;;;;;;;14.75;7.55;;;;;;;;;;7363032;19;20006;-75
2024/01/18 10:05:46;;;;;;;19.88;8.50;;;;;;;;;;7363508;19;20006;-75
2024/01/18 10:08:11;;;;;;;15.15;8.07;;;;;;;;;;7363063;19;20028;-76
2024/01/18 10:10:37;;;;;;;13.10;7.18;;;;;;;;;;7382610;19;20392;-76
2024/01/18 10:13:05;;;;;;;17.05;8.77;;;;;;;;;;7361810;19;20071;-76
2024/01/18 10:15:33;;;;;;;17.38;6.88;;;;;;;;;;7362869;19;20003;-75
2024/01/18 10:18:04;;;;;;;15.35;7.45;;;;;;;;;;7362846;19;20003;-75
2024/01/18 10:20:30;;;;;;;12.70;6.63;;;;;;;;;;7363082;19;20005;-77
2024/01/18 10:22:55;;;;;;;15.93;7.15;;;;;;;;;;7363100;19;20003;-76
2024/01/18 10:25:26;;;;;;;15.07;7.78;;;;;;;;;;7387496;19;20487;-76
2024/01/18 10:27:55;;;;;;;14.05;7.60;;;;;;;;;;7365155;19;20006;-75
2024/01/18 10:30:21;;;;;;;20.15;7.57;;;;;;;;;;7360898;19;20002;-76
2024/01/18 10:32:48;;;;;;;14.32;7.30;;;;;;;;;;7362204;19;20310;-76
2024/01/18 10:35:28;;;;;;;14.02;7.45;;;;;;;;;;7362577;19;20102;-77
2024/01/18 10:38:04;;;;;;;13.60;7.22;;;;;;;;;;7361084;19;20023;-76
2024/01/18 10:40:33;;;;;;;13.93;6.50;;;;;;;;;;7383304;19;20021;-75
2024/01/18 10:42:59;;;;;;;13.85;6.75;;;;;;;;;;7359993;19;20559;-75
2024/01/18 10:45:27;;;;;;;14.45;6.88;;;;;;;;;;7362268;19;20018;-75
2024/01/18 10:47:55;;;;;;;15.65;6.40;;;;;;;;;;7360693;19;20017;-78
2024/01/18 10:50:21;;;;;;;12.13;6.03;;;;;;;;;;7365977;19;20038;-77
2024/01/18 10:52:47;;;;;;;13.02;6.90;;;;;;;;;;7372190;19;20062;-75
2024/01/18 10:55:13;;;;;;;12.57;6.22;;;;;;;;;;7396280;19;20013;-76
2024/01/18 10:57:38;;;;;;;13.60;5.70;;;;;;;;;;7370092;19;20006;-77
2024/01/18 11:00:07;;;;;;;11.07;5.82;;;;;;;;;;7367635;19;20035;-76
2024/01/18 11:02:39;;;;;;;17.23;6.68;;;;;;;;;;7368912;19;20007;-78
2024/01/18 11:05:07;;;;;;;13.60;6.03;;;;;;;;;;7375627;19;20003;-77
2024/01/18 11:07:33;;;;;;;13.38;6.32;;;;;;;;;;7400889;19;20011;-78
2024/01/18 11:09:59;;;;;;;10.90;6.25;;;;;;;;;;7362304;19;20006;-77
2024/01/18 11:12:26;;;;;;;13.75;6.13;;;;;;;;;;7363502;19;20007;-78
2024/01/18 11:14:51;;;;;;;10.35;5.32;;;;;;;;;;7365741;19;20018;-78
2024/01/18 11:17:17;;;;;;;10.63;5.60;;;;;;;;;;7362875;19;20014;-77
2024/01/18 11:19:44;;;;;;;10.20;5.13;;;;;;;;;;7362937;19;20021;-77
2024/01/18 11:22:21;;;;;;;11.70;5.80;;;;;;;;;;7383826;19;20402;-77
2024/01/18 11:24:46;;;;;;;8.65;4.47;;;;;;;;;;7362437;19;20003;-77
2024/01/18 11:27:23;;;;;;;11.10;5.63;;;;;;;;;;7360541;19;20010;-77
2024/01/18 11:29:49;;;;;;;10.65;5.57;;;;;;;;;;7363320;19;20524;-77
2024/01/18 11:32:18;;;;;;;12.15;5.85;;;;;;;;;;7363428;19;20509;-77
2024/01/18 11:34:45;;;;;;;10.45;5.70;;;;;;;;;;7362888;19;20022;-79
2024/01/18 11:37:12;;;;;;;14.15;5.85;;;;;;;;;;7386089;19;20007;-78
2024/01/18 11:39:50;;;;;;;10.90;6.00;;;;;;;;;;7364631;19;20799;-78
2024/01/18 11:42:21;;;;;;;9.40;5.20;;;;;;;;;;7366154;19;20011;-79
2024/01/18 11:45:04;;;;;;;9.98;4.72;;;;;;;;;;7367023;19;20026;-80
2024/01/18 11:47:33;;;;;;;12.07;4.85;;;;;;;;;;7367319;19;20023;-83
2024/01/18 11:50:04;;;;;;;10.43;4.75;;;;;;;;;;7369036;19;20114;-83
2024/01/18 11:52:33;;;;;;;8.73;4.68;;;;;;;;;;7396673;19;20479;-84
2024/01/18 11:55:00;;;;;;;9.82;4.35;;;;;;;;;;7388787;19;20017;-84
2024/01/18 11:57:26;;;;;;;9.52;5.15;;;;;;;;;;7393345;19;20046;-82
2024/01/18 11:59:53;;;;;;;7.80;4.20;;;;;;;;;;7387799;19;20011;-82
2024/01/18 12:02:20;;;;;;;12.50;5.22;;;;;;;;;;7378329;19;20033;-82
2024/01/18 12:04:45;;;;;;;11.25;4.28;;;;;;;;;;7373002;19;20435;-84
2024/01/18 12:07:11;;;;;;;8.32;4.60;;;;;;;;;;7405008;19;19999;-82
2024/01/18 12:09:37;;;;;;;15.60;4.72;;;;;;;;;;7385124;19;20042;-80
2024/01/18 12:12:04;;;;;;;12.65;5.25;;;;;;;;;;7386905;19;20007;-81
2024/01/18 12:14:30;;;;;;;8.15;4.22;;;;;;;;;;7381961;19;19995;-83
2024/01/18 12:16:56;;;;;;;10.95;4.88;;;;;;;;;;7382430;19;20013;-82
2024/01/18 12:19:29;;;;;;;9.02;4.15;;;;;;;;;;7401854;19;20005;-81
2024/01/18 12:21:54;;;;;;;11.07;5.05;;;;;;;;;;7379493;19;20002;-80
2024/01/18 12:24:20;;;;;;;8.43;4.93;;;;;;;;;;7380585;19;20015;-81
2024/01/18 12:26:46;;;;;;;12.13;5.00;;;;;;;;;;7401815;19;19998;-80
2024/01/18 12:29:12;;;;;;;13.95;5.50;;;;;;;;;;7394780;19;20008;-80
2024/01/18 12:31:37;;;;;;;11.07;5.00;;;;;;;;;;7406436;19;20698;-83
2024/01/18 12:34:03;;;;;;;12.88;5.20;;;;;;;;;;7379995;19;20028;-83
2024/01/18 12:36:28;;;;;;;10.75;4.95;;;;;;;;;;7379426;19;20427;-82
2024/01/18 12:38:53;;;;;;;19.25;5.72;;;;;;;;;;7375982;19;20010;-83
2024/01/18 12:41:19;;;;;;;16.17;4.88;;;;;;;;;;7372940;19;20402;-83
2024/01/18 12:43:46;;;;;;;12.57;4.95;;;;;;;;;;7371563;19;19998;-85
2024/01/18 12:46:11;;;;;;;17.48;5.20;;;;;;;;;;7395804;19;20022;-84
2024/01/18 12:48:37;;;;;;;12.25;5.03;;;;;;;;;;7373365;19;20091;-83
2024/01/18 12:51:03;;;;;;;10.38;4.10;;;;;;;;;;7373706;19;20103;-83
2024/01/18 12:53:29;;;;;;;11.55;4.65;;;;;;;;;;7374154;19;20002;-83
2024/01/18 12:55:54;;;;;;;12.35;5.63;;;;;;;;;;7372917;19;19991;-85
2024/01/18 12:58:22;;;;;;;12.85;5.80;;;;;;;;;;7396543;19;20619;-83
2024/01/18 13:00:53;;;;;;;13.30;6.32;;;;;;;;;;7375769;19;20002;-83
2024/01/18 13:03:20;;;;;;;13.05;6.47;;;;;;;;;;7373985;19;20257;-83
2024/01/18 13:05:47;;;;;;;15.35;6.95;;;;;;;;;;7377800;19;20562;-81
2024/01/18 13:08:13;;;;;;;13.57;6.80;;;;;;;;;;7376904;19;20035;-80
2024/01/18 13:10:39;;;;;;;14.18;6.97;;;;;;;;;;7394481;19;20014;-82
2024/01/18 13:13:08;;;;;;;17.30;7.28;;;;;;;;;;7389949;19;20006;-82
2024/01/18 13:15:34;;;;;;;15.18;7.07;;;;;;;;;;7375879;19;20009;-81
2024/01/18 13:18:02;;;;;;;14.80;7.38;;;;;;;;;;7374795;19;20006;-82
2024/01/18 13:20:28;;;;;;;16.75;6.88;;;;;;;;;;7374236;19;20051;-84
2024/01/18 13:22:53;;;;;;;14.23;7.10;;;;;;;;;;7372436;19;20002;-85
2024/01/18 13:25:19;;;;;;;19.08;7.15;;;;;;;;;;7393748;19;20501;-85
2024/01/18 13:27:45;;;;;;;16.10;7.55;;;;;;;;;;7371628;19;20482;-84
2024/01/18 13:30:11;;;;;;;16.30;7.43;;;;;;;;;;7376650;19;19998;-85
2024/01/18 13:32:37;;;;;;;14.25;7.82;;;;;;;;;;7373418;19;20003;-85
2024/01/18 13:35:03;;;;;;;14.88;6.80;;;;;;;;;;7375963;19;20511;-84
2024/01/18 13:37:28;;;;;;;18.02;6.97;;;;;;;;;;7404325;19;20005;-84
2024/01/18 13:39:54;;;;;;;17.58;7.97;;;;;;;;;;7385114;19;20003;-86
2024/01/18 13:42:19;;;;;;;14.75;7.35;;;;;;;;;;7390763;19;20077;-84
2024/01/18 13:44:44;;;;;;;21.45;8.00;;;;;;;;;;7396156;19;19998;-86
2024/01/18 13:47:10;;;;;;;17.17;7.38;;;;;;;;;;7393449;19;19999;-83
2024/01/18 13:49:35;;;;;;;15.57;7.38;;;;;;;;;;7421904;19;20037;-85
2024/01/18 13:52:02;;;;;;;11.70;5.88;;;;;;;;;;7393261;19;19994;-83
2024/01/18 13:54:27;;;;;;;16.13;6.75;;;;;;;;;;7400684;19;19990;-83
2024/01/18 13:56:53;;;;;;;16.10;7.40;;;;;;;;;;7396268;19;20063;-83
2024/01/18 13:59:18;;;;;;;17.33;6.60;;;;;;;;;;7392340;19;19998;-84
2024/01/18 14:01:43;;;;;;;18.48;7.22;;;;;;;;;;7400709;19;20009;-86
2024/01/18 14:04:09;;;;;;;17.40;7.95;;;;;;;;;;7404324;19;20719;-86
2024/01/18 14:06:35;;;;;;;15.90;6.63;;;;;;;;;;7394013;19;19991;-86
2024/01/18 14:09:00;;;;;;;13.95;7.72;;;;;;;;;;7385064;19;20726;-85
2024/01/18 14:11:25;;;;;;;21.15;8.25;;;;;;;;;;7378082;19;20035;-84
2024/01/18 14:13:51;;;;;;;16.83;8.85;;;;;;;;;;7372591;19;20353;-84
2024/01/18 14:16:16;;;;;;;15.73;7.80;;;;;;;;;;7396197;19;20010;-85
2024/01/18 14:18:42;;;;;;;21.80;8.73;;;;;;;;;;7372800;19;20096;-84
2024/01/18 14:21:07;;;;;;;16.83;7.72;;;;;;;;;;7380741;19;20018;-84